Hovedside
METAR-TAF:

METAR-TAF

Lufthavner :

Batam, Indonesia

breddegrad: 01-07-15N, lengdegrad: 104-07-07E, høyde over havet: 38 m

Gjeldene værobservasjon

Denne rapporten ble laget for 36 minutter siden, klokken 22:00 UTC
Vind 6 kt fra Sør-sørvest
Temperatur 26°C
Luftfuktighet 89%
Trykk 1010 hPa
Sikt: 9000 m
Spredte skyer i en høyde av 1400 ft

METAR: WIDD 182200Z 20006KT 9000 SCT014 26/24 Q1010 RERA NOSIG

Tid: 05:36 (22:36 UTC)

Varsel

Denne rapporten ble laget for 5 timer og 36 minutter siden, klokken 17:00 UTC
Varsel gyldig fra 18. klokken 18 UTC til 19. klokken 18 UTC
Vind kt fra Nord
Sikt: 6000 m
Få skyer i en høyde av 1400 ft

TAF: WIDD 181700Z 1818/1918 00000KT 6000 FEW014

Værobservasjoner og værvarsel for over 4000 flyplasser (METAR- og TAF-rapporter).

Tilgjengelige stasjoner er representert av de røde og gule prikkene på kartet.

Hold musepekeren over prikken for å se navnet på stasjonen.

Klikk så for å se værobservasjoner og -varsler.

For å forandre kartet kan du klikke på den grønne knappen med svart kryss for å zoome inn, på den grønne knappen med strek for å zoome ut, eller på de grønne pilene for å se tilstøtende kart.


METAR-TAF: